sensor_id;sensor_type;location;lat;lon;timestamp;P1;durP1;ratioP1;P2;durP2;ratioP2
15938;SDS011;8068;51.322;9.450;2023-12-20T00:02:17;5.70;;;5.43;;
15938;SDS011;8068;51.322;9.450;2023-12-20T00:04:44;6.50;;;6.10;;
15938;SDS011;8068;51.322;9.450;2023-12-20T00:07:11;6.70;;;6.33;;
15938;SDS011;8068;51.322;9.450;2023-12-20T00:09:38;6.63;;;6.33;;
15938;SDS011;8068;51.322;9.450;2023-12-20T00:12:05;6.57;;;6.17;;
15938;SDS011;8068;51.322;9.450;2023-12-20T00:14:32;6.97;;;6.47;;
15938;SDS011;8068;51.322;9.450;2023-12-20T00:16:59;6.47;;;6.07;;
15938;SDS011;8068;51.322;9.450;2023-12-20T00:19:26;6.60;;;6.07;;
15938;SDS011;8068;51.322;9.450;2023-12-20T00:21:52;6.87;;;6.43;;
15938;SDS011;8068;51.322;9.450;2023-12-20T00:24:20;5.93;;;5.60;;
15938;SDS011;8068;51.322;9.450;2023-12-20T00:26:47;7.60;;;6.80;;
15938;SDS011;8068;51.322;9.450;2023-12-20T00:29:14;5.93;;;5.53;;
15938;SDS011;8068;51.322;9.450;2023-12-20T00:31:41;7.00;;;6.50;;
15938;SDS011;8068;51.322;9.450;2023-12-20T00:34:08;7.40;;;6.33;;
15938;SDS011;8068;51.322;9.450;2023-12-20T00:36:35;6.23;;;5.83;;
15938;SDS011;8068;51.322;9.450;2023-12-20T00:39:03;6.87;;;6.37;;
15938;SDS011;8068;51.322;9.450;2023-12-20T00:41:31;5.90;;;5.60;;
15938;SDS011;8068;51.322;9.450;2023-12-20T00:43:57;6.30;;;5.90;;
15938;SDS011;8068;51.322;9.450;2023-12-20T00:46:24;6.10;;;5.70;;
15938;SDS011;8068;51.322;9.450;2023-12-20T00:48:51;6.13;;;5.73;;
15938;SDS011;8068;51.322;9.450;2023-12-20T00:51:18;5.23;;;4.93;;
15938;SDS011;8068;51.322;9.450;2023-12-20T00:53:45;4.97;;;4.80;;
15938;SDS011;8068;51.322;9.450;2023-12-20T00:56:16;6.33;;;6.00;;
15938;SDS011;8068;51.322;9.450;2023-12-20T00:58:43;5.70;;;5.40;;
15938;SDS011;8068;51.322;9.450;2023-12-20T01:01:10;5.93;;;5.43;;
15938;SDS011;8068;51.322;9.450;2023-12-20T01:03:37;6.67;;;6.30;;
15938;SDS011;8068;51.322;9.450;2023-12-20T01:06:05;7.20;;;6.70;;
15938;SDS011;8068;51.322;9.450;2023-12-20T01:08:32;6.50;;;6.10;;
15938;SDS011;8068;51.322;9.450;2023-12-20T01:11:03;5.47;;;5.27;;
15938;SDS011;8068;51.322;9.450;2023-12-20T01:13:30;5.30;;;5.10;;
15938;SDS011;8068;51.322;9.450;2023-12-20T01:15:58;5.83;;;5.63;;
15938;SDS011;8068;51.322;9.450;2023-12-20T01:18:24;7.03;;;6.57;;
15938;SDS011;8068;51.322;9.450;2023-12-20T01:20:54;6.20;;;5.93;;
15938;SDS011;8068;51.322;9.450;2023-12-20T01:23:22;5.50;;;5.20;;
15938;SDS011;8068;51.322;9.450;2023-12-20T01:25:49;5.23;;;5.03;;
15938;SDS011;8068;51.322;9.450;2023-12-20T01:28:15;5.10;;;4.90;;
15938;SDS011;8068;51.322;9.450;2023-12-20T01:30:42;4.63;;;4.43;;
15938;SDS011;8068;51.322;9.450;2023-12-20T01:33:10;5.20;;;4.97;;
15938;SDS011;8068;51.322;9.450;2023-12-20T01:35:37;4.70;;;4.40;;
15938;SDS011;8068;51.322;9.450;2023-12-20T01:38:04;4.50;;;4.30;;
15938;SDS011;8068;51.322;9.450;2023-12-20T01:40:31;5.63;;;5.23;;
15938;SDS011;8068;51.322;9.450;2023-12-20T01:42:58;4.63;;;4.53;;
15938;SDS011;8068;51.322;9.450;2023-12-20T01:45:27;4.80;;;4.60;;
15938;SDS011;8068;51.322;9.450;2023-12-20T01:47:55;4.97;;;4.77;;
15938;SDS011;8068;51.322;9.450;2023-12-20T01:50:22;4.83;;;4.63;;
15938;SDS011;8068;51.322;9.450;2023-12-20T01:52:49;4.20;;;4.10;;
15938;SDS011;8068;51.322;9.450;2023-12-20T01:55:19;4.83;;;4.63;;
15938;SDS011;8068;51.322;9.450;2023-12-20T01:57:46;4.13;;;4.03;;
15938;SDS011;8068;51.322;9.450;2023-12-20T02:00:16;4.57;;;4.37;;
15938;SDS011;8068;51.322;9.450;2023-12-20T02:02:45;5.33;;;5.13;;
15938;SDS011;8068;51.322;9.450;2023-12-20T02:05:12;5.17;;;4.97;;
15938;SDS011;8068;51.322;9.450;2023-12-20T02:07:40;4.30;;;4.20;;
15938;SDS011;8068;51.322;9.450;2023-12-20T02:10:07;4.50;;;4.40;;
15938;SDS011;8068;51.322;9.450;2023-12-20T02:12:34;5.27;;;4.87;;
15938;SDS011;8068;51.322;9.450;2023-12-20T02:15:02;6.27;;;5.67;;
15938;SDS011;8068;51.322;9.450;2023-12-20T02:17:31;5.13;;;4.93;;
15938;SDS011;8068;51.322;9.450;2023-12-20T02:19:58;4.63;;;4.43;;
15938;SDS011;8068;51.322;9.450;2023-12-20T02:22:26;5.40;;;4.90;;
15938;SDS011;8068;51.322;9.450;2023-12-20T02:24:53;4.87;;;4.67;;
15938;SDS011;8068;51.322;9.450;2023-12-20T02:27:20;4.47;;;4.37;;
15938;SDS011;8068;51.322;9.450;2023-12-20T02:29:48;4.30;;;4.20;;
15938;SDS011;8068;51.322;9.450;2023-12-20T02:32:17;5.57;;;5.33;;
15938;SDS011;8068;51.322;9.450;2023-12-20T02:34:45;4.90;;;4.70;;
15938;SDS011;8068;51.322;9.450;2023-12-20T02:37:14;5.00;;;4.80;;
15938;SDS011;8068;51.322;9.450;2023-12-20T02:39:41;4.60;;;4.40;;
15938;SDS011;8068;51.322;9.450;2023-12-20T02:42:08;3.77;;;2.43;;
15938;SDS011;8068;51.322;9.450;2023-12-20T02:44:35;1.30;;;1.20;;
15938;SDS011;8068;51.322;9.450;2023-12-20T02:47:03;0.80;;;0.63;;
15938;SDS011;8068;51.322;9.450;2023-12-20T02:49:30;4.67;;;1.00;;
15938;SDS011;8068;51.322;9.450;2023-12-20T02:51:57;5.63;;;0.83;;
15938;SDS011;8068;51.322;9.450;2023-12-20T02:54:24;1.30;;;0.87;;
15938;SDS011;8068;51.322;9.450;2023-12-20T02:56:51;2.43;;;0.77;;
15938;SDS011;8068;51.322;9.450;2023-12-20T02:59:18;1.43;;;0.87;;
15938;SDS011;8068;51.322;9.450;2023-12-20T03:01:45;4.03;;;0.90;;
15938;SDS011;8068;51.322;9.450;2023-12-20T03:04:12;1.37;;;0.80;;
15938;SDS011;8068;51.322;9.450;2023-12-20T03:06:39;1.47;;;1.00;;
15938;SDS011;8068;51.322;9.450;2023-12-20T03:09:06;2.40;;;0.70;;
15938;SDS011;8068;51.322;9.450;2023-12-20T03:11:34;4.10;;;0.80;;
15938;SDS011;8068;51.322;9.450;2023-12-20T03:14:01;1.50;;;0.93;;
15938;SDS011;8068;51.322;9.450;2023-12-20T03:16:27;1.17;;;0.90;;
15938;SDS011;8068;51.322;9.450;2023-12-20T03:18:54;2.80;;;0.90;;
15938;SDS011;8068;51.322;9.450;2023-12-20T03:21:21;1.10;;;0.80;;
15938;SDS011;8068;51.322;9.450;2023-12-20T03:23:48;1.00;;;0.90;;
15938;SDS011;8068;51.322;9.450;2023-12-20T03:26:15;5.53;;;1.07;;
15938;SDS011;8068;51.322;9.450;2023-12-20T03:28:42;2.63;;;1.30;;
15938;SDS011;8068;51.322;9.450;2023-12-20T03:31:09;5.80;;;1.40;;
15938;SDS011;8068;51.322;9.450;2023-12-20T03:33:37;1.40;;;1.20;;
15938;SDS011;8068;51.322;9.450;2023-12-20T03:36:04;4.13;;;1.20;;
15938;SDS011;8068;51.322;9.450;2023-12-20T03:38:31;1.80;;;1.70;;
15938;SDS011;8068;51.322;9.450;2023-12-20T03:40:58;4.50;;;2.07;;
15938;SDS011;8068;51.322;9.450;2023-12-20T03:43:25;4.40;;;2.30;;
15938;SDS011;8068;51.322;9.450;2023-12-20T03:45:52;2.00;;;1.67;;
15938;SDS011;8068;51.322;9.450;2023-12-20T03:48:18;5.67;;;1.90;;
15938;SDS011;8068;51.322;9.450;2023-12-20T03:50:45;2.20;;;1.93;;
15938;SDS011;8068;51.322;9.450;2023-12-20T03:53:12;2.80;;;2.10;;
15938;SDS011;8068;51.322;9.450;2023-12-20T03:55:39;3.50;;;1.80;;
15938;SDS011;8068;51.322;9.450;2023-12-20T03:58:06;2.20;;;2.00;;
15938;SDS011;8068;51.322;9.450;2023-12-20T04:00:33;4.80;;;2.10;;
15938;SDS011;8068;51.322;9.450;2023-12-20T04:03:00;2.30;;;2.10;;
15938;SDS011;8068;51.322;9.450;2023-12-20T04:05:27;3.53;;;3.23;;
15938;SDS011;8068;51.322;9.450;2023-12-20T04:07:54;5.90;;;2.60;;
15938;SDS011;8068;51.322;9.450;2023-12-20T04:10:21;3.03;;;2.67;;
15938;SDS011;8068;51.322;9.450;2023-12-20T04:12:48;4.50;;;2.73;;
15938;SDS011;8068;51.322;9.450;2023-12-20T04:15:15;3.17;;;2.90;;
15938;SDS011;8068;51.322;9.450;2023-12-20T04:17:42;3.00;;;2.90;;
15938;SDS011;8068;51.322;9.450;2023-12-20T04:20:09;3.97;;;2.80;;
15938;SDS011;8068;51.322;9.450;2023-12-20T04:22:37;3.80;;;2.30;;
15938;SDS011;8068;51.322;9.450;2023-12-20T04:25:03;2.73;;;2.50;;
15938;SDS011;8068;51.322;9.450;2023-12-20T04:27:31;6.70;;;2.47;;
15938;SDS011;8068;51.322;9.450;2023-12-20T04:29:58;3.00;;;2.33;;
15938;SDS011;8068;51.322;9.450;2023-12-20T04:32:25;2.40;;;2.20;;
15938;SDS011;8068;51.322;9.450;2023-12-20T04:34:52;2.27;;;1.63;;
15938;SDS011;8068;51.322;9.450;2023-12-20T04:37:19;2.40;;;2.00;;
15938;SDS011;8068;51.322;9.450;2023-12-20T04:39:46;3.20;;;1.53;;
15938;SDS011;8068;51.322;9.450;2023-12-20T04:42:13;3.30;;;1.40;;
15938;SDS011;8068;51.322;9.450;2023-12-20T04:44:40;4.00;;;1.80;;
15938;SDS011;8068;51.322;9.450;2023-12-20T04:47:07;3.33;;;2.20;;
15938;SDS011;8068;51.322;9.450;2023-12-20T04:49:34;1.73;;;1.30;;
15938;SDS011;8068;51.322;9.450;2023-12-20T04:52:01;2.90;;;1.70;;
15938;SDS011;8068;51.322;9.450;2023-12-20T04:54:28;1.57;;;1.43;;
15938;SDS011;8068;51.322;9.450;2023-12-20T04:56:55;3.73;;;1.43;;
15938;SDS011;8068;51.322;9.450;2023-12-20T04:59:22;7.10;;;1.77;;
15938;SDS011;8068;51.322;9.450;2023-12-20T05:01:49;5.17;;;1.47;;
15938;SDS011;8068;51.322;9.450;2023-12-20T05:04:16;4.03;;;1.60;;
15938;SDS011;8068;51.322;9.450;2023-12-20T05:06:43;1.50;;;1.27;;
15938;SDS011;8068;51.322;9.450;2023-12-20T05:09:10;2.43;;;1.27;;
15938;SDS011;8068;51.322;9.450;2023-12-20T05:11:37;2.87;;;1.30;;
15938;SDS011;8068;51.322;9.450;2023-12-20T05:14:04;2.67;;;1.37;;
15938;SDS011;8068;51.322;9.450;2023-12-20T05:16:31;1.93;;;1.30;;
15938;SDS011;8068;51.322;9.450;2023-12-20T05:18:58;3.10;;;0.90;;
15938;SDS011;8068;51.322;9.450;2023-12-20T05:21:27;2.50;;;1.47;;
15938;SDS011;8068;51.322;9.450;2023-12-20T05:23:54;4.50;;;1.40;;
15938;SDS011;8068;51.322;9.450;2023-12-20T05:26:21;5.73;;;1.20;;
15938;SDS011;8068;51.322;9.450;2023-12-20T05:28:48;1.87;;;1.20;;
15938;SDS011;8068;51.322;9.450;2023-12-20T05:31:15;3.00;;;1.27;;
15938;SDS011;8068;51.322;9.450;2023-12-20T05:33:42;1.63;;;1.50;;
15938;SDS011;8068;51.322;9.450;2023-12-20T05:36:09;3.90;;;1.37;;
15938;SDS011;8068;51.322;9.450;2023-12-20T05:38:38;1.97;;;0.90;;
15938;SDS011;8068;51.322;9.450;2023-12-20T05:41:05;4.33;;;1.53;;
15938;SDS011;8068;51.322;9.450;2023-12-20T05:43:31;5.23;;;2.00;;
15938;SDS011;8068;51.322;9.450;2023-12-20T05:45:59;1.80;;;1.30;;
15938;SDS011;8068;51.322;9.450;2023-12-20T05:48:26;4.03;;;1.00;;
15938;SDS011;8068;51.322;9.450;2023-12-20T05:50:54;4.43;;;1.40;;
15938;SDS011;8068;51.322;9.450;2023-12-20T05:53:21;5.93;;;1.43;;
15938;SDS011;8068;51.322;9.450;2023-12-20T05:55:48;4.73;;;1.03;;
15938;SDS011;8068;51.322;9.450;2023-12-20T05:58:15;2.47;;;1.30;;
15938;SDS011;8068;51.322;9.450;2023-12-20T06:00:43;5.30;;;1.80;;
15938;SDS011;8068;51.322;9.450;2023-12-20T06:03:10;2.13;;;1.70;;
15938;SDS011;8068;51.322;9.450;2023-12-20T06:05:37;8.30;;;1.83;;
15938;SDS011;8068;51.322;9.450;2023-12-20T06:08:04;2.40;;;1.90;;
15938;SDS011;8068;51.322;9.450;2023-12-20T06:10:31;3.83;;;2.53;;
15938;SDS011;8068;51.322;9.450;2023-12-20T06:12:58;3.57;;;1.87;;
15938;SDS011;8068;51.322;9.450;2023-12-20T06:15:27;3.93;;;1.30;;
15938;SDS011;8068;51.322;9.450;2023-12-20T06:17:54;2.13;;;1.83;;
15938;SDS011;8068;51.322;9.450;2023-12-20T06:20:21;4.10;;;1.87;;
15938;SDS011;8068;51.322;9.450;2023-12-20T06:22:48;2.50;;;1.37;;
15938;SDS011;8068;51.322;9.450;2023-12-20T06:25:15;2.83;;;1.27;;
15938;SDS011;8068;51.322;9.450;2023-12-20T06:27:42;3.30;;;1.60;;
15938;SDS011;8068;51.322;9.450;2023-12-20T06:30:10;3.67;;;2.13;;
15938;SDS011;8068;51.322;9.450;2023-12-20T06:32:37;6.20;;;2.10;;
15938;SDS011;8068;51.322;9.450;2023-12-20T06:35:06;4.50;;;1.80;;
15938;SDS011;8068;51.322;9.450;2023-12-20T06:37:33;1.77;;;1.47;;
15938;SDS011;8068;51.322;9.450;2023-12-20T06:40:00;1.97;;;1.87;;
15938;SDS011;8068;51.322;9.450;2023-12-20T06:42:27;2.07;;;1.73;;
15938;SDS011;8068;51.322;9.450;2023-12-20T06:44:57;2.03;;;1.77;;
15938;SDS011;8068;51.322;9.450;2023-12-20T06:47:23;4.73;;;1.57;;
15938;SDS011;8068;51.322;9.450;2023-12-20T06:49:50;5.33;;;1.73;;
15938;SDS011;8068;51.322;9.450;2023-12-20T06:52:17;4.27;;;2.73;;
15938;SDS011;8068;51.322;9.450;2023-12-20T06:54:44;4.70;;;2.13;;
15938;SDS011;8068;51.322;9.450;2023-12-20T06:57:11;6.87;;;2.77;;
15938;SDS011;8068;51.322;9.450;2023-12-20T06:59:39;2.73;;;2.27;;
15938;SDS011;8068;51.322;9.450;2023-12-20T07:02:07;2.70;;;1.83;;
15938;SDS011;8068;51.322;9.450;2023-12-20T07:04:40;3.40;;;2.00;;
15938;SDS011;8068;51.322;9.450;2023-12-20T07:07:08;5.13;;;2.13;;
15938;SDS011;8068;51.322;9.450;2023-12-20T07:09:35;3.37;;;1.70;;
15938;SDS011;8068;51.322;9.450;2023-12-20T07:12:02;3.93;;;2.20;;
15938;SDS011;8068;51.322;9.450;2023-12-20T07:14:29;3.23;;;2.03;;
15938;SDS011;8068;51.322;9.450;2023-12-20T07:16:56;5.73;;;2.23;;
15938;SDS011;8068;51.322;9.450;2023-12-20T07:19:23;4.50;;;2.10;;
15938;SDS011;8068;51.322;9.450;2023-12-20T07:21:50;7.53;;;2.53;;
15938;SDS011;8068;51.322;9.450;2023-12-20T07:24:17;2.20;;;2.00;;
15938;SDS011;8068;51.322;9.450;2023-12-20T07:26:45;8.13;;;2.60;;
15938;SDS011;8068;51.322;9.450;2023-12-20T07:29:12;4.30;;;1.60;;
15938;SDS011;8068;51.322;9.450;2023-12-20T07:31:38;2.60;;;2.07;;
15938;SDS011;8068;51.322;9.450;2023-12-20T07:34:05;5.40;;;2.17;;
15938;SDS011;8068;51.322;9.450;2023-12-20T07:36:33;3.30;;;2.67;;
15938;SDS011;8068;51.322;9.450;2023-12-20T07:39:00;3.77;;;2.03;;
15938;SDS011;8068;51.322;9.450;2023-12-20T07:41:26;7.70;;;1.93;;
15938;SDS011;8068;51.322;9.450;2023-12-20T07:43:53;4.00;;;2.50;;
15938;SDS011;8068;51.322;9.450;2023-12-20T07:46:21;4.80;;;1.73;;
15938;SDS011;8068;51.322;9.450;2023-12-20T07:48:51;2.53;;;2.00;;
15938;SDS011;8068;51.322;9.450;2023-12-20T07:51:18;10.33;;;3.53;;
15938;SDS011;8068;51.322;9.450;2023-12-20T07:53:45;8.63;;;2.10;;
15938;SDS011;8068;51.322;9.450;2023-12-20T07:58:42;10.60;;;3.37;;
15938;SDS011;8068;51.322;9.450;2023-12-20T08:01:18;7.00;;;2.77;;
15938;SDS011;8068;51.322;9.450;2023-12-20T08:03:46;4.10;;;2.50;;
15938;SDS011;8068;51.322;9.450;2023-12-20T08:06:13;6.27;;;2.67;;
15938;SDS011;8068;51.322;9.450;2023-12-20T08:08:40;8.63;;;2.60;;
15938;SDS011;8068;51.322;9.450;2023-12-20T08:11:09;4.57;;;2.33;;
15938;SDS011;8068;51.322;9.450;2023-12-20T08:13:36;2.87;;;1.90;;
15938;SDS011;8068;51.322;9.450;2023-12-20T08:16:03;8.33;;;2.27;;
15938;SDS011;8068;51.322;9.450;2023-12-20T08:18:32;2.60;;;2.27;;
15938;SDS011;8068;51.322;9.450;2023-12-20T08:20:59;2.63;;;2.30;;
15938;SDS011;8068;51.322;9.450;2023-12-20T08:23:27;4.33;;;2.60;;
15938;SDS011;8068;51.322;9.450;2023-12-20T08:25:56;9.47;;;2.53;;
15938;SDS011;8068;51.322;9.450;2023-12-20T08:28:22;5.30;;;1.80;;
15938;SDS011;8068;51.322;9.450;2023-12-20T08:30:49;2.43;;;1.93;;
15938;SDS011;8068;51.322;9.450;2023-12-20T08:33:20;4.00;;;1.83;;
15938;SDS011;8068;51.322;9.450;2023-12-20T08:35:47;8.30;;;1.40;;
15938;SDS011;8068;51.322;9.450;2023-12-20T08:38:14;6.30;;;1.63;;
15938;SDS011;8068;51.322;9.450;2023-12-20T08:40:41;4.67;;;2.27;;
15938;SDS011;8068;51.322;9.450;2023-12-20T08:43:08;4.30;;;2.30;;
15938;SDS011;8068;51.322;9.450;2023-12-20T08:45:35;5.80;;;2.70;;
15938;SDS011;8068;51.322;9.450;2023-12-20T08:48:02;3.70;;;2.77;;
15938;SDS011;8068;51.322;9.450;2023-12-20T08:50:33;5.77;;;3.03;;
15938;SDS011;8068;51.322;9.450;2023-12-20T08:53:00;3.10;;;2.50;;
15938;SDS011;8068;51.322;9.450;2023-12-20T08:55:27;4.13;;;2.70;;
15938;SDS011;8068;51.322;9.450;2023-12-20T08:57:56;4.93;;;2.90;;
15938;SDS011;8068;51.322;9.450;2023-12-20T09:00:23;7.30;;;3.57;;
15938;SDS011;8068;51.322;9.450;2023-12-20T09:02:52;6.50;;;3.00;;
15938;SDS011;8068;51.322;9.450;2023-12-20T09:05:20;8.40;;;3.03;;
15938;SDS011;8068;51.322;9.450;2023-12-20T09:07:47;7.03;;;3.40;;
15938;SDS011;8068;51.322;9.450;2023-12-20T09:10:14;9.97;;;3.03;;
15938;SDS011;8068;51.322;9.450;2023-12-20T09:12:45;4.33;;;2.40;;
15938;SDS011;8068;51.322;9.450;2023-12-20T09:15:13;3.50;;;2.97;;
15938;SDS011;8068;51.322;9.450;2023-12-20T09:17:41;4.17;;;3.03;;
15938;SDS011;8068;51.322;9.450;2023-12-20T09:20:09;4.13;;;2.77;;
15938;SDS011;8068;51.322;9.450;2023-12-20T09:22:36;6.10;;;2.63;;
15938;SDS011;8068;51.322;9.450;2023-12-20T09:25:05;7.17;;;4.07;;
15938;SDS011;8068;51.322;9.450;2023-12-20T09:27:32;3.83;;;2.50;;
15938;SDS011;8068;51.322;9.450;2023-12-20T09:29:59;14.63;;;3.00;;
15938;SDS011;8068;51.322;9.450;2023-12-20T09:32:26;5.70;;;2.30;;
15938;SDS011;8068;51.322;9.450;2023-12-20T09:34:53;9.80;;;1.67;;
15938;SDS011;8068;51.322;9.450;2023-12-20T09:37:20;3.30;;;1.70;;
15938;SDS011;8068;51.322;9.450;2023-12-20T09:39:47;4.83;;;1.90;;
15938;SDS011;8068;51.322;9.450;2023-12-20T09:42:15;1.67;;;1.57;;
15938;SDS011;8068;51.322;9.450;2023-12-20T09:44:44;6.60;;;2.10;;
15938;SDS011;8068;51.322;9.450;2023-12-20T09:47:13;2.50;;;1.77;;
15938;SDS011;8068;51.322;9.450;2023-12-20T09:49:42;2.43;;;2.20;;
15938;SDS011;8068;51.322;9.450;2023-12-20T09:52:10;6.47;;;1.93;;
15938;SDS011;8068;51.322;9.450;2023-12-20T09:54:37;4.00;;;2.23;;
15938;SDS011;8068;51.322;9.450;2023-12-20T09:57:05;3.77;;;2.33;;
15938;SDS011;8068;51.322;9.450;2023-12-20T09:59:32;3.57;;;1.60;;
15938;SDS011;8068;51.322;9.450;2023-12-20T10:01:59;1.97;;;1.47;;
15938;SDS011;8068;51.322;9.450;2023-12-20T10:04:31;3.83;;;1.50;;
15938;SDS011;8068;51.322;9.450;2023-12-20T10:07:01;5.37;;;1.77;;
15938;SDS011;8068;51.322;9.450;2023-12-20T10:09:32;3.07;;;1.37;;
15938;SDS011;8068;51.322;9.450;2023-12-20T10:12:01;4.37;;;1.70;;
15938;SDS011;8068;51.322;9.450;2023-12-20T10:14:28;2.80;;;1.70;;
15938;SDS011;8068;51.322;9.450;2023-12-20T10:17:00;1.80;;;1.23;;
15938;SDS011;8068;51.322;9.450;2023-12-20T10:19:28;1.50;;;1.40;;
15938;SDS011;8068;51.322;9.450;2023-12-20T10:21:56;2.87;;;1.63;;
15938;SDS011;8068;51.322;9.450;2023-12-20T10:24:23;1.63;;;1.30;;
15938;SDS011;8068;51.322;9.450;2023-12-20T10:27:01;3.90;;;1.53;;
15938;SDS011;8068;51.322;9.450;2023-12-20T10:29:34;1.40;;;1.30;;
15938;SDS011;8068;51.322;9.450;2023-12-20T10:32:38;2.73;;;1.53;;
15938;SDS011;8068;51.322;9.450;2023-12-20T10:34:58;4.63;;;2.17;;
15938;SDS011;8068;51.322;9.450;2023-12-20T10:37:26;4.53;;;1.57;;
15938;SDS011;8068;51.322;9.450;2023-12-20T10:39:54;2.87;;;1.97;;
15938;SDS011;8068;51.322;9.450;2023-12-20T10:42:26;3.37;;;1.97;;
15938;SDS011;8068;51.322;9.450;2023-12-20T10:44:53;16.83;;;1.70;;
15938;SDS011;8068;51.322;9.450;2023-12-20T10:47:20;4.60;;;1.80;;
15938;SDS011;8068;51.322;9.450;2023-12-20T10:49:47;5.93;;;1.60;;
15938;SDS011;8068;51.322;9.450;2023-12-20T10:52:15;4.33;;;2.03;;
15938;SDS011;8068;51.322;9.450;2023-12-20T10:54:44;6.60;;;1.93;;
15938;SDS011;8068;51.322;9.450;2023-12-20T10:57:11;3.10;;;1.67;;
15938;SDS011;8068;51.322;9.450;2023-12-20T10:59:38;4.37;;;1.80;;
15938;SDS011;8068;51.322;9.450;2023-12-20T11:02:06;5.37;;;1.60;;
15938;SDS011;8068;51.322;9.450;2023-12-20T11:07:22;2.60;;;1.07;;
15938;SDS011;8068;51.322;9.450;2023-12-20T11:09:56;3.63;;;1.90;;
15938;SDS011;8068;51.322;9.450;2023-12-20T11:12:35;1.40;;;1.20;;
15938;SDS011;8068;51.322;9.450;2023-12-20T11:15:06;1.70;;;1.50;;
15938;SDS011;8068;51.322;9.450;2023-12-20T11:17:33;3.57;;;1.50;;
15938;SDS011;8068;51.322;9.450;2023-12-20T11:22:31;3.60;;;1.50;;
15938;SDS011;8068;51.322;9.450;2023-12-20T11:25:08;3.40;;;1.53;;
15938;SDS011;8068;51.322;9.450;2023-12-20T11:27:40;3.30;;;1.33;;
15938;SDS011;8068;51.322;9.450;2023-12-20T11:30:08;7.03;;;1.80;;
15938;SDS011;8068;51.322;9.450;2023-12-20T11:32:36;3.40;;;1.90;;
15938;SDS011;8068;51.322;9.450;2023-12-20T11:37:37;2.07;;;1.50;;
15938;SDS011;8068;51.322;9.450;2023-12-20T11:40:05;1.80;;;1.47;;
15938;SDS011;8068;51.322;9.450;2023-12-20T11:42:39;2.33;;;1.50;;
15938;SDS011;8068;51.322;9.450;2023-12-20T11:45:10;3.07;;;1.37;;
15938;SDS011;8068;51.322;9.450;2023-12-20T11:47:46;2.30;;;1.43;;
15938;SDS011;8068;51.322;9.450;2023-12-20T11:50:15;5.20;;;1.77;;
15938;SDS011;8068;51.322;9.450;2023-12-20T11:52:46;3.90;;;1.17;;
15938;SDS011;8068;51.322;9.450;2023-12-20T11:55:13;3.00;;;1.70;;
15938;SDS011;8068;51.322;9.450;2023-12-20T11:57:41;2.50;;;1.50;;
15938;SDS011;8068;51.322;9.450;2023-12-20T12:00:09;3.40;;;2.17;;
15938;SDS011;8068;51.322;9.450;2023-12-20T12:02:36;1.77;;;1.33;;
15938;SDS011;8068;51.322;9.450;2023-12-20T12:05:03;2.90;;;1.53;;
15938;SDS011;8068;51.322;9.450;2023-12-20T12:07:33;2.60;;;1.63;;
15938;SDS011;8068;51.322;9.450;2023-12-20T12:10:00;3.13;;;1.60;;
15938;SDS011;8068;51.322;9.450;2023-12-20T12:12:28;2.13;;;1.10;;
15938;SDS011;8068;51.322;9.450;2023-12-20T12:14:56;1.87;;;1.50;;
15938;SDS011;8068;51.322;9.450;2023-12-20T12:17:24;1.83;;;1.27;;
15938;SDS011;8068;51.322;9.450;2023-12-20T12:19:52;1.77;;;1.47;;
15938;SDS011;8068;51.322;9.450;2023-12-20T12:22:29;5.83;;;1.90;;
15938;SDS011;8068;51.322;9.450;2023-12-20T12:24:58;5.10;;;1.73;;
15938;SDS011;8068;51.322;9.450;2023-12-20T12:27:27;2.40;;;1.60;;
15938;SDS011;8068;51.322;9.450;2023-12-20T12:30:03;2.53;;;1.30;;
15938;SDS011;8068;51.322;9.450;2023-12-20T12:32:34;1.70;;;1.60;;
15938;SDS011;8068;51.322;9.450;2023-12-20T12:35:04;3.77;;;1.90;;
15938;SDS011;8068;51.322;9.450;2023-12-20T12:37:34;1.60;;;1.27;;
15938;SDS011;8068;51.322;9.450;2023-12-20T12:40:03;6.40;;;2.00;;
15938;SDS011;8068;51.322;9.450;2023-12-20T12:42:31;2.17;;;1.27;;
15938;SDS011;8068;51.322;9.450;2023-12-20T12:44:59;1.60;;;1.50;;
15938;SDS011;8068;51.322;9.450;2023-12-20T12:47:26;3.20;;;1.57;;
15938;SDS011;8068;51.322;9.450;2023-12-20T12:49:53;4.60;;;1.37;;
15938;SDS011;8068;51.322;9.450;2023-12-20T12:52:20;3.53;;;1.17;;
15938;SDS011;8068;51.322;9.450;2023-12-20T12:54:47;2.17;;;1.70;;
15938;SDS011;8068;51.322;9.450;2023-12-20T12:57:15;3.83;;;1.37;;
15938;SDS011;8068;51.322;9.450;2023-12-20T12:59:45;3.90;;;1.90;;
15938;SDS011;8068;51.322;9.450;2023-12-20T13:02:13;2.03;;;1.77;;
15938;SDS011;8068;51.322;9.450;2023-12-20T13:04:40;4.17;;;1.80;;
15938;SDS011;8068;51.322;9.450;2023-12-20T13:07:08;1.63;;;1.53;;
15938;SDS011;8068;51.322;9.450;2023-12-20T13:09:38;3.40;;;1.43;;
15938;SDS011;8068;51.322;9.450;2023-12-20T13:12:06;3.10;;;1.77;;
15938;SDS011;8068;51.322;9.450;2023-12-20T13:14:33;2.20;;;1.17;;
15938;SDS011;8068;51.322;9.450;2023-12-20T13:17:04;1.43;;;1.33;;
15938;SDS011;8068;51.322;9.450;2023-12-20T13:19:31;1.60;;;1.17;;
15938;SDS011;8068;51.322;9.450;2023-12-20T13:21:58;2.93;;;2.40;;
15938;SDS011;8068;51.322;9.450;2023-12-20T13:24:26;3.00;;;1.80;;
15938;SDS011;8068;51.322;9.450;2023-12-20T13:26:53;2.40;;;1.30;;
15938;SDS011;8068;51.322;9.450;2023-12-20T13:29:19;1.60;;;1.50;;
15938;SDS011;8068;51.322;9.450;2023-12-20T13:31:47;4.30;;;1.93;;
15938;SDS011;8068;51.322;9.450;2023-12-20T13:34:14;3.30;;;1.87;;
15938;SDS011;8068;51.322;9.450;2023-12-20T13:36:41;1.47;;;1.30;;
15938;SDS011;8068;51.322;9.450;2023-12-20T13:39:08;1.77;;;1.40;;
15938;SDS011;8068;51.322;9.450;2023-12-20T13:41:35;1.40;;;1.10;;
15938;SDS011;8068;51.322;9.450;2023-12-20T13:44:02;1.47;;;1.37;;
15938;SDS011;8068;51.322;9.450;2023-12-20T13:46:30;1.47;;;1.30;;
15938;SDS011;8068;51.322;9.450;2023-12-20T13:48:58;5.10;;;1.20;;
15938;SDS011;8068;51.322;9.450;2023-12-20T13:51:25;1.40;;;1.30;;
15938;SDS011;8068;51.322;9.450;2023-12-20T13:53:52;2.40;;;1.53;;
15938;SDS011;8068;51.322;9.450;2023-12-20T13:56:19;1.70;;;1.60;;
15938;SDS011;8068;51.322;9.450;2023-12-20T13:58:46;1.67;;;1.57;;
15938;SDS011;8068;51.322;9.450;2023-12-20T14:01:14;1.57;;;1.47;;
15938;SDS011;8068;51.322;9.450;2023-12-20T14:03:41;3.03;;;1.27;;
15938;SDS011;8068;51.322;9.450;2023-12-20T14:06:08;3.43;;;1.40;;
15938;SDS011;8068;51.322;9.450;2023-12-20T14:08:35;2.43;;;1.30;;
15938;SDS011;8068;51.322;9.450;2023-12-20T14:11:02;1.30;;;1.20;;
15938;SDS011;8068;51.322;9.450;2023-12-20T14:13:29;1.33;;;1.20;;
15938;SDS011;8068;51.322;9.450;2023-12-20T14:15:58;2.43;;;1.20;;
15938;SDS011;8068;51.322;9.450;2023-12-20T14:18:27;1.40;;;1.30;;
15938;SDS011;8068;51.322;9.450;2023-12-20T14:20:54;1.47;;;1.37;;
15938;SDS011;8068;51.322;9.450;2023-12-20T14:23:21;1.33;;;1.23;;
15938;SDS011;8068;51.322;9.450;2023-12-20T14:25:49;1.60;;;1.50;;
15938;SDS011;8068;51.322;9.450;2023-12-20T14:28:19;3.93;;;1.33;;
15938;SDS011;8068;51.322;9.450;2023-12-20T14:30:46;1.83;;;1.53;;
15938;SDS011;8068;51.322;9.450;2023-12-20T14:33:13;2.47;;;1.50;;
15938;SDS011;8068;51.322;9.450;2023-12-20T14:35:40;1.43;;;1.33;;
15938;SDS011;8068;51.322;9.450;2023-12-20T14:38:11;1.47;;;1.20;;
15938;SDS011;8068;51.322;9.450;2023-12-20T14:40:41;1.53;;;1.43;;
15938;SDS011;8068;51.322;9.450;2023-12-20T14:43:08;1.30;;;1.20;;
15938;SDS011;8068;51.322;9.450;2023-12-20T14:45:35;1.63;;;1.53;;
15938;SDS011;8068;51.322;9.450;2023-12-20T14:48:02;1.37;;;1.27;;
15938;SDS011;8068;51.322;9.450;2023-12-20T14:50:30;1.40;;;1.13;;
15938;SDS011;8068;51.322;9.450;2023-12-20T14:52:56;1.67;;;1.57;;
15938;SDS011;8068;51.322;9.450;2023-12-20T14:55:24;4.17;;;3.00;;
15938;SDS011;8068;51.322;9.450;2023-12-20T14:57:53;1.40;;;1.30;;
15938;SDS011;8068;51.322;9.450;2023-12-20T15:00:20;1.60;;;1.50;;
15938;SDS011;8068;51.322;9.450;2023-12-20T15:02:48;1.13;;;1.03;;
15938;SDS011;8068;51.322;9.450;2023-12-20T15:05:15;1.50;;;1.40;;
15938;SDS011;8068;51.322;9.450;2023-12-20T15:07:44;1.70;;;1.13;;
15938;SDS011;8068;51.322;9.450;2023-12-20T15:10:11;4.43;;;1.30;;
15938;SDS011;8068;51.322;9.450;2023-12-20T15:12:38;1.40;;;1.30;;
15938;SDS011;8068;51.322;9.450;2023-12-20T15:15:06;1.73;;;1.53;;